Time,TemperatureF,DewpointF,PressureIn,WindDirection,WindDirectionDegrees,WindSpeedMPH,WindSpeedGustMPH,Humidity,HourlyPrecipIn,Conditions,Clouds,dailyrainin,SoftwareType,DateUTC
2013-07-15 00:02:00,74.3,71.0,30.21,SE,146,0.0,0.0,90,0.00,,,0.00,weatherlink.com 1.10,2013-07-15 04:02:00,
2013-07-15 00:17:00,74.0,71.0,30.20,SE,146,0.0,0.0,91,0.00,,,0.00,weatherlink.com 1.10,2013-07-15 04:17:00,
2013-07-15 00:32:00,73.7,71.0,30.20,SE,146,0.0,0.0,91,0.00,,,0.00,weatherlink.com 1.10,2013-07-15 04:32:00,
2013-07-15 00:47:00,73.2,71.0,30.20,SE,146,0.0,0.0,92,0.00,,,0.00,weatherlink.com 1.10,2013-07-15 04:47:00,
2013-07-15 01:02:00,72.8,71.0,30.21,SE,146,0.0,0.0,93,0.00,,,0.00,weatherlink.com 1.10,2013-07-15 05:02:00,
2013-07-15 01:17:00,72.5,70.0,30.21,SE,146,0.0,0.0,93,0.00,,,0.00,weatherlink.com 1.10,2013-07-15 05:17:00,
2013-07-15 01:32:00,72.1,70.0,30.21,SE,146,0.0,0.0,94,0.00,,,0.00,weatherlink.com 1.10,2013-07-15 05:32:00,
2013-07-15 01:47:00,71.9,70.0,30.21,SE,146,0.0,0.0,94,0.00,,,0.00,weatherlink.com 1.10,2013-07-15 05:47:00,
2013-07-15 02:21:00,71.1,70.0,30.21,SSE,147,0.0,0.0,95,0.00,,,0.00,weatherlink.com 1.10,2013-07-15 06:21:00,
2013-07-15 02:32:00,70.8,69.0,30.20,SSE,147,0.0,0.0,95,0.00,,,0.00,weatherlink.com 1.10,2013-07-15 06:32:00,
2013-07-15 02:47:00,70.7,69.0,30.20,SSE,147,0.0,0.0,95,0.00,,,0.00,weatherlink.com 1.10,2013-07-15 06:47:00,
2013-07-15 03:02:00,70.4,69.0,30.20,SSE,147,0.0,0.0,95,0.00,,,0.00,weatherlink.com 1.10,2013-07-15 07:02:00,
2013-07-15 03:17:00,70.2,69.0,30.21,SSE,147,0.0,0.0,96,0.00,,,0.00,weatherlink.com 1.10,2013-07-15 07:17:00,
2013-07-15 03:32:00,69.9,69.0,30.21,SSE,147,0.0,0.0,95,0.00,,,0.00,weatherlink.com 1.10,2013-07-15 07:32:00,
2013-07-15 03:47:00,69.5,68.0,30.21,SSE,147,0.0,0.0,96,0.00,,,0.00,weatherlink.com 1.10,2013-07-15 07:47:00,
2013-07-15 04:02:00,69.3,68.0,30.21,SSE,147,0.0,0.0,96,0.00,,,0.00,weatherlink.com 1.10,2013-07-15 08:02:00,
2013-07-15 04:17:00,69.2,68.0,30.21,SSE,147,0.0,0.0,96,0.00,,,0.00,weatherlink.com 1.10,2013-07-15 08:17:00,
2013-07-15 04:32:00,69.1,68.0,30.21,SSE,147,0.0,0.0,96,0.00,,,0.00,weatherlink.com 1.10,2013-07-15 08:32:00,
2013-07-15 04:47:00,69.0,68.0,30.21,SSE,147,0.0,0.0,96,0.00,,,0.00,weatherlink.com 1.10,2013-07-15 08:47:00,
2013-07-15 05:02:00,68.7,68.0,30.21,SSE,147,0.0,0.0,96,0.00,,,0.00,weatherlink.com 1.10,2013-07-15 09:02:00,
2013-07-15 05:17:00,68.4,67.0,30.21,SSE,147,0.0,0.0,96,0.00,,,0.00,weatherlink.com 1.10,2013-07-15 09:17:00,
2013-07-15 05:32:00,68.3,67.0,30.21,SSE,147,0.0,0.0,96,0.00,,,0.00,weatherlink.com 1.10,2013-07-15 09:32:00,
2013-07-15 05:47:00,68.2,67.0,30.22,SSE,147,0.0,0.0,96,0.00,,,0.00,weatherlink.com 1.10,2013-07-15 09:47:00,
2013-07-15 06:02:00,68.1,67.0,30.22,SSE,147,0.0,0.0,97,0.00,,,0.00,weatherlink.com 1.10,2013-07-15 10:02:00,
2013-07-15 06:17:00,68.3,68.0,30.22,SSE,147,0.0,0.0,97,0.00,,,0.00,weatherlink.com 1.10,2013-07-15 10:17:00,
2013-07-15 06:32:00,68.7,68.0,30.22,SSE,147,0.0,0.0,97,0.00,,,0.00,weatherlink.com 1.10,2013-07-15 10:32:00,
2013-07-15 06:48:00,69.8,69.0,30.23,SSE,147,0.0,0.0,98,0.00,,,0.00,weatherlink.com 1.10,2013-07-15 10:48:00,
2013-07-15 07:03:00,71.4,70.0,30.23,SSE,147,0.0,0.0,96,0.00,,,0.00,weatherlink.com 1.10,2013-07-15 11:03:00,
2013-07-15 07:18:00,73.6,71.0,30.23,SSE,153,0.0,0.0,92,0.00,,,0.00,weatherlink.com 1.10,2013-07-15 11:18:00,
2013-07-15 07:33:00,75.2,71.0,30.23,SSE,159,0.0,0.0,87,0.00,,,0.00,weatherlink.com 1.10,2013-07-15 11:33:00,
2013-07-15 07:48:00,76.6,72.0,30.23,SSE,159,0.0,0.0,85,0.00,,,0.00,weatherlink.com 1.10,2013-07-15 11:48:00,
2013-07-15 08:03:00,79.0,73.0,30.23,NW,305,0.0,1.0,81,0.00,,,0.00,weatherlink.com 1.10,2013-07-15 12:03:00,
2013-07-15 08:18:00,80.5,73.0,30.24,NW,310,0.0,2.0,77,0.00,,,0.00,weatherlink.com 1.10,2013-07-15 12:18:00,
2013-07-15 08:33:00,81.8,74.0,30.24,NW,308,0.0,2.0,77,0.00,,,0.00,weatherlink.com 1.10,2013-07-15 12:33:00,
2013-07-15 08:48:00,83.5,74.0,30.23,WNW,296,0.0,3.0,73,0.00,,,0.00,weatherlink.com 1.10,2013-07-15 12:48:00,
2013-07-15 09:03:00,84.3,74.0,30.23,NW,305,2.0,4.0,70,0.00,,,0.00,weatherlink.com 1.10,2013-07-15 13:03:00,
2013-07-15 09:18:00,85.1,73.0,30.23,NW,311,3.0,4.0,68,0.00,,,0.00,weatherlink.com 1.10,2013-07-15 13:18:00,
2013-07-15 09:33:00,86.2,73.0,30.23,East,80,0.0,3.0,64,0.00,,,0.00,weatherlink.com 1.10,2013-07-15 13:33:00,
2013-07-15 09:48:00,85.2,73.0,30.23,ESE,104,0.0,2.0,66,0.00,,,0.00,weatherlink.com 1.10,2013-07-15 13:48:00,
2013-07-15 10:03:00,87.1,75.0,30.24,NW,306,2.0,4.0,67,0.00,,,0.00,weatherlink.com 1.10,2013-07-15 14:03:00,
2013-07-15 10:18:00,87.3,73.0,30.23,West,280,2.0,5.0,62,0.00,,,0.00,weatherlink.com 1.10,2013-07-15 14:18:00,
2013-07-15 10:33:00,88.0,74.0,30.23,WNW,296,2.0,3.0,63,0.00,,,0.00,weatherlink.com 1.10,2013-07-15 14:33:00,
2013-07-15 10:48:00,88.8,73.0,30.23,WNW,287,4.0,5.0,60,0.00,,,0.00,weatherlink.com 1.10,2013-07-15 14:48:00,
2013-07-15 11:03:00,88.9,74.0,30.23,WNW,299,1.0,5.0,61,0.00,,,0.00,weatherlink.com 1.10,2013-07-15 15:03:00,
2013-07-15 11:18:00,89.0,73.0,30.23,WNW,283,0.0,5.0,59,0.00,,,0.00,weatherlink.com 1.10,2013-07-15 15:18:00,
2013-07-15 11:33:00,89.8,75.0,30.22,WNW,294,3.0,6.0,61,0.00,,,0.00,weatherlink.com 1.10,2013-07-15 15:33:00,
2013-07-15 11:48:00,90.8,73.0,30.22,West,280,2.0,7.0,56,0.00,,,0.00,weatherlink.com 1.10,2013-07-15 15:48:00,
2013-07-15 12:03:00,90.7,74.0,30.22,WNW,291,3.0,6.0,58,0.00,,,0.00,weatherlink.com 1.10,2013-07-15 16:03:00,
2013-07-15 12:18:00,91.7,74.0,30.21,East,80,1.0,5.0,57,0.00,,,0.00,weatherlink.com 1.10,2013-07-15 16:18:00,
2013-07-15 12:33:00,91.6,75.0,30.21,West,278,0.0,5.0,58,0.00,,,0.00,weatherlink.com 1.10,2013-07-15 16:33:00,
2013-07-15 12:48:00,91.2,73.0,30.21,ESE,112,2.0,4.0,56,0.00,,,0.00,weatherlink.com 1.10,2013-07-15 16:48:00,
2013-07-15 13:34:00,92.6,74.0,30.19,West,275,1.0,6.0,55,0.00,,,0.00,weatherlink.com 1.10,2013-07-15 17:34:00,
2013-07-15 13:50:00,92.9,75.0,30.19,NW,317,1.0,5.0,57,0.00,,,0.00,weatherlink.com 1.10,2013-07-15 17:50:00,
2013-07-15 14:04:00,94.1,74.0,30.18,WSW,248,0.0,4.0,53,0.00,,,0.00,weatherlink.com 1.10,2013-07-15 18:04:00,
2013-07-15 14:34:00,94.0,73.0,30.18,East,90,1.0,6.0,51,0.00,,,0.00,weatherlink.com 1.10,2013-07-15 18:34:00,
2013-07-15 14:49:00,93.8,75.0,30.17,WNW,288,2.0,5.0,54,0.00,,,0.00,weatherlink.com 1.10,2013-07-15 18:49:00,
2013-07-15 15:19:00,94.0,73.0,30.17,WNW,295,1.0,6.0,51,0.00,,,0.00,weatherlink.com 1.10,2013-07-15 19:19:00,
2013-07-15 15:34:00,94.0,73.0,30.16,West,259,2.0,6.0,50,0.00,,,0.00,weatherlink.com 1.10,2013-07-15 19:34:00,
2013-07-15 15:49:00,94.4,73.0,30.16,WNW,297,1.0,4.0,50,0.00,,,0.00,weatherlink.com 1.10,2013-07-15 19:49:00,
2013-07-15 16:04:00,94.5,73.0,30.16,WNW,288,1.0,6.0,49,0.00,,,0.00,weatherlink.com 1.10,2013-07-15 20:04:00,
2013-07-15 16:19:00,94.7,72.0,30.15,WNW,294,1.0,5.0,48,0.00,,,0.00,weatherlink.com 1.10,2013-07-15 20:19:00,
2013-07-15 16:34:00,95.3,73.0,30.15,WNW,294,2.0,4.0,48,0.00,,,0.00,weatherlink.com 1.10,2013-07-15 20:34:00,
2013-07-15 16:49:00,94.2,72.0,30.15,ESE,122,0.0,2.0,49,0.00,,,0.00,weatherlink.com 1.10,2013-07-15 20:49:00,
2013-07-15 17:04:00,93.6,73.0,30.14,WNW,282,2.0,3.0,51,0.00,,,0.00,weatherlink.com 1.10,2013-07-15 21:04:00,
2013-07-15 17:19:00,94.2,74.0,30.14,WNW,284,2.0,5.0,52,0.00,,,0.00,weatherlink.com 1.10,2013-07-15 21:19:00,
2013-07-15 17:34:00,94.4,71.0,30.14,WNW,294,1.0,5.0,47,0.00,,,0.00,weatherlink.com 1.10,2013-07-15 21:34:00,
2013-07-15 17:49:00,94.8,73.0,30.13,WNW,296,2.0,4.0,49,0.00,,,0.00,weatherlink.com 1.10,2013-07-15 21:49:00,
2013-07-15 18:04:00,94.6,73.0,30.13,WNW,288,4.0,5.0,49,0.00,,,0.00,weatherlink.com 1.10,2013-07-15 22:04:00,
2013-07-15 18:19:00,94.2,73.0,30.13,WNW,302,1.0,4.0,50,0.00,,,0.00,weatherlink.com 1.10,2013-07-15 22:19:00,
2013-07-15 18:34:00,94.3,74.0,30.12,NW,315,2.0,3.0,52,0.00,,,0.00,weatherlink.com 1.10,2013-07-15 22:34:00,
2013-07-15 19:04:00,94.6,73.0,30.12,WNW,297,2.0,3.0,49,0.00,,,0.00,weatherlink.com 1.10,2013-07-15 23:04:00,
2013-07-15 19:19:00,94.1,73.0,30.12,WNW,297,1.0,2.0,50,0.00,,,0.00,weatherlink.com 1.10,2013-07-15 23:19:00,
2013-07-15 19:34:00,93.8,73.0,30.12,WNW,297,1.0,2.0,51,0.00,,,0.00,weatherlink.com 1.10,2013-07-15 23:34:00,
2013-07-15 19:49:00,93.2,74.0,30.12,WNW,297,1.0,2.0,53,0.00,,,0.00,weatherlink.com 1.10,2013-07-15 23:49:00,
2013-07-15 20:04:00,91.7,74.0,30.12,WNW,297,1.0,2.0,56,0.00,,,0.00,weatherlink.com 1.10,2013-07-16 00:04:00,
2013-07-15 20:34:00,86.8,74.0,30.12,WNW,297,0.0,1.0,66,0.00,,,0.00,weatherlink.com 1.10,2013-07-16 00:34:00,
2013-07-15 21:04:00,83.7,74.0,30.12,WNW,297,0.0,0.0,72,0.00,,,0.00,weatherlink.com 1.10,2013-07-16 01:04:00,
2013-07-15 21:19:00,82.5,74.0,30.12,WNW,297,0.0,0.0,75,0.00,,,0.00,weatherlink.com 1.10,2013-07-16 01:19:00,
2013-07-15 21:34:00,81.4,74.0,30.13,WNW,297,0.0,0.0,77,0.00,,,0.00,weatherlink.com 1.10,2013-07-16 01:34:00,
2013-07-15 21:49:00,80.2,73.0,30.13,WNW,297,0.0,0.0,79,0.00,,,0.00,weatherlink.com 1.10,2013-07-16 01:49:00,
2013-07-15 22:04:00,79.5,73.0,30.13,WNW,297,0.0,0.0,81,0.00,,,0.00,weatherlink.com 1.10,2013-07-16 02:04:00,
2013-07-15 22:19:00,78.9,73.0,30.14,WNW,297,0.0,0.0,83,0.00,,,0.00,weatherlink.com 1.10,2013-07-16 02:19:00,
2013-07-15 22:34:00,78.2,73.0,30.14,WNW,297,0.0,0.0,84,0.00,,,0.00,weatherlink.com 1.10,2013-07-16 02:34:00,
2013-07-15 22:49:00,77.7,73.0,30.14,WNW,297,0.0,0.0,85,0.00,,,0.00,weatherlink.com 1.10,2013-07-16 02:49:00,
2013-07-15 23:04:00,77.3,73.0,30.14,WNW,297,0.0,0.0,87,0.00,,,0.00,weatherlink.com 1.10,2013-07-16 03:04:00,
2013-07-15 23:19:00,77.0,74.0,30.15,WNW,297,0.0,0.0,89,0.00,,,0.00,weatherlink.com 1.10,2013-07-16 03:19:00,
2013-07-15 23:34:00,76.8,74.0,30.15,WNW,297,0.0,0.0,90,0.00,,,0.00,weatherlink.com 1.10,2013-07-16 03:34:00,
2013-07-15 23:49:00,76.5,74.0,30.15,WNW,297,0.0,0.0,90,0.00,,,0.00,weatherlink.com 1.10,2013-07-16 03:49:00,